sensor_id;sensor_type;location;lat;lon;timestamp;temperature;humidity
7542;DHT22;3812;50.006;8.230;2022-09-09T00:01:11;15.20;99.90
7542;DHT22;3812;50.006;8.230;2022-09-09T00:03:47;15.10;99.90
7542;DHT22;3812;50.006;8.230;2022-09-09T00:06:21;15.00;99.90
7542;DHT22;3812;50.006;8.230;2022-09-09T00:08:57;15.00;99.90
7542;DHT22;3812;50.006;8.230;2022-09-09T00:11:34;14.90;1.00
7542;DHT22;3812;50.006;8.230;2022-09-09T00:14:08;14.90;1.00
7542;DHT22;3812;50.006;8.230;2022-09-09T00:16:42;14.80;1.00
7542;DHT22;3812;50.006;8.230;2022-09-09T00:19:19;14.80;1.00
7542;DHT22;3812;50.006;8.230;2022-09-09T00:21:52;14.80;1.00
7542;DHT22;3812;50.006;8.230;2022-09-09T00:24:26;14.80;1.00
7542;DHT22;3812;50.006;8.230;2022-09-09T00:27:01;14.80;1.00
7542;DHT22;3812;50.006;8.230;2022-09-09T00:29:37;14.70;1.00
7542;DHT22;3812;50.006;8.230;2022-09-09T00:32:12;14.70;1.00
7542;DHT22;3812;50.006;8.230;2022-09-09T00:34:48;14.60;1.00
7542;DHT22;3812;50.006;8.230;2022-09-09T00:37:16;14.60;1.00
7542;DHT22;3812;50.006;8.230;2022-09-09T00:39:46;14.50;1.00
7542;DHT22;3812;50.006;8.230;2022-09-09T00:42:17;14.50;1.00
7542;DHT22;3812;50.006;8.230;2022-09-09T00:44:55;14.50;1.00
7542;DHT22;3812;50.006;8.230;2022-09-09T00:47:46;14.40;1.00
7542;DHT22;3812;50.006;8.230;2022-09-09T00:50:32;14.40;1.00
7542;DHT22;3812;50.006;8.230;2022-09-09T00:53:09;14.30;1.00
7542;DHT22;3812;50.006;8.230;2022-09-09T00:55:44;14.30;1.00
7542;DHT22;3812;50.006;8.230;2022-09-09T00:58:15;14.20;1.00
7542;DHT22;3812;50.006;8.230;2022-09-09T01:00:44;14.20;1.00
7542;DHT22;3812;50.006;8.230;2022-09-09T01:03:21;14.10;1.00
7542;DHT22;3812;50.006;8.230;2022-09-09T01:05:58;14.20;1.00
7542;DHT22;3812;50.006;8.230;2022-09-09T01:08:42;14.20;8.40
7542;DHT22;3812;50.006;8.230;2022-09-09T01:11:20;14.30;92.50
7542;DHT22;3812;50.006;8.230;2022-09-09T01:13:53;14.30;99.90
7542;DHT22;3812;50.006;8.230;2022-09-09T01:16:25;14.30;99.90
7542;DHT22;3812;50.006;8.230;2022-09-09T01:18:54;14.30;99.90
7542;DHT22;3812;50.006;8.230;2022-09-09T01:21:30;14.30;99.90
7542;DHT22;3812;50.006;8.230;2022-09-09T01:24:19;14.20;99.90
7542;DHT22;3812;50.006;8.230;2022-09-09T01:27:06;14.10;99.90
7542;DHT22;3812;50.006;8.230;2022-09-09T01:29:34;14.10;99.90
7542;DHT22;3812;50.006;8.230;2022-09-09T01:32:03;14.10;99.90
7542;DHT22;3812;50.006;8.230;2022-09-09T01:34:33;14.10;99.90
7542;DHT22;3812;50.006;8.230;2022-09-09T01:37:04;14.00;99.90
7542;DHT22;3812;50.006;8.230;2022-09-09T01:39:32;14.00;99.90
7542;DHT22;3812;50.006;8.230;2022-09-09T01:42:06;14.00;99.90
7542;DHT22;3812;50.006;8.230;2022-09-09T01:44:34;13.90;99.90
7542;DHT22;3812;50.006;8.230;2022-09-09T01:47:03;13.80;99.90
7542;DHT22;3812;50.006;8.230;2022-09-09T01:49:31;13.80;99.90
7542;DHT22;3812;50.006;8.230;2022-09-09T01:52:03;13.70;99.90
7542;DHT22;3812;50.006;8.230;2022-09-09T01:54:35;13.60;99.90
7542;DHT22;3812;50.006;8.230;2022-09-09T01:57:17;13.60;99.90
7542;DHT22;3812;50.006;8.230;2022-09-09T01:59:58;13.60;99.90
7542;DHT22;3812;50.006;8.230;2022-09-09T02:02:32;13.60;99.90
7542;DHT22;3812;50.006;8.230;2022-09-09T02:05:16;13.80;99.90
7542;DHT22;3812;50.006;8.230;2022-09-09T02:07:47;13.90;99.90
7542;DHT22;3812;50.006;8.230;2022-09-09T02:10:35;13.90;99.90
7542;DHT22;3812;50.006;8.230;2022-09-09T02:13:14;13.90;99.90
7542;DHT22;3812;50.006;8.230;2022-09-09T02:15:47;13.90;99.90
7542;DHT22;3812;50.006;8.230;2022-09-09T02:18:21;14.00;1.00
7542;DHT22;3812;50.006;8.230;2022-09-09T02:20:52;14.10;1.00
7542;DHT22;3812;50.006;8.230;2022-09-09T02:23:21;14.20;1.00
7542;DHT22;3812;50.006;8.230;2022-09-09T02:25:52;14.30;1.00
7542;DHT22;3812;50.006;8.230;2022-09-09T02:28:26;14.30;1.00
7542;DHT22;3812;50.006;8.230;2022-09-09T02:30:56;14.30;1.00
7542;DHT22;3812;50.006;8.230;2022-09-09T02:33:34;14.30;1.00
7542;DHT22;3812;50.006;8.230;2022-09-09T02:36:03;14.20;1.00
7542;DHT22;3812;50.006;8.230;2022-09-09T02:38:35;14.10;1.00
7542;DHT22;3812;50.006;8.230;2022-09-09T02:41:08;13.90;1.00
7542;DHT22;3812;50.006;8.230;2022-09-09T02:43:37;13.80;1.00
7542;DHT22;3812;50.006;8.230;2022-09-09T02:46:19;13.80;1.00
7542;DHT22;3812;50.006;8.230;2022-09-09T02:48:57;13.80;1.00
7542;DHT22;3812;50.006;8.230;2022-09-09T02:51:34;13.70;1.00
7542;DHT22;3812;50.006;8.230;2022-09-09T02:54:10;13.70;1.00
7542;DHT22;3812;50.006;8.230;2022-09-09T02:56:41;13.60;1.00
7542;DHT22;3812;50.006;8.230;2022-09-09T02:59:12;13.60;1.00
7542;DHT22;3812;50.006;8.230;2022-09-09T03:01:40;13.60;1.00
7542;DHT22;3812;50.006;8.230;2022-09-09T03:04:08;13.60;1.00
7542;DHT22;3812;50.006;8.230;2022-09-09T03:06:36;13.60;1.00
7542;DHT22;3812;50.006;8.230;2022-09-09T03:09:14;13.60;1.00
7542;DHT22;3812;50.006;8.230;2022-09-09T03:11:41;13.70;1.00
7542;DHT22;3812;50.006;8.230;2022-09-09T03:14:08;13.80;1.00
7542;DHT22;3812;50.006;8.230;2022-09-09T03:16:38;13.80;1.00
7542;DHT22;3812;50.006;8.230;2022-09-09T03:19:06;13.80;1.00
7542;DHT22;3812;50.006;8.230;2022-09-09T03:21:33;13.80;1.00
7542;DHT22;3812;50.006;8.230;2022-09-09T03:24:00;13.80;1.00
7542;DHT22;3812;50.006;8.230;2022-09-09T03:26:29;13.80;1.00
7542;DHT22;3812;50.006;8.230;2022-09-09T03:28:56;13.80;1.00
7542;DHT22;3812;50.006;8.230;2022-09-09T03:31:26;13.80;1.00
7542;DHT22;3812;50.006;8.230;2022-09-09T03:33:57;13.80;1.00
7542;DHT22;3812;50.006;8.230;2022-09-09T03:36:26;13.80;1.00
7542;DHT22;3812;50.006;8.230;2022-09-09T03:38:54;13.80;1.00
7542;DHT22;3812;50.006;8.230;2022-09-09T03:41:23;13.80;1.00
7542;DHT22;3812;50.006;8.230;2022-09-09T03:43:50;13.70;1.00
7542;DHT22;3812;50.006;8.230;2022-09-09T03:46:18;13.70;1.00
7542;DHT22;3812;50.006;8.230;2022-09-09T03:48:44;13.70;1.00
7542;DHT22;3812;50.006;8.230;2022-09-09T03:51:13;13.80;1.00
7542;DHT22;3812;50.006;8.230;2022-09-09T03:53:41;13.80;1.00
7542;DHT22;3812;50.006;8.230;2022-09-09T03:56:09;13.70;1.00
7542;DHT22;3812;50.006;8.230;2022-09-09T03:58:37;13.70;1.00
7542;DHT22;3812;50.006;8.230;2022-09-09T04:01:08;13.70;1.00
7542;DHT22;3812;50.006;8.230;2022-09-09T04:03:36;13.70;1.00
7542;DHT22;3812;50.006;8.230;2022-09-09T04:06:04;13.70;1.00
7542;DHT22;3812;50.006;8.230;2022-09-09T04:08:34;13.80;1.00
7542;DHT22;3812;50.006;8.230;2022-09-09T04:11:02;13.70;1.00
7542;DHT22;3812;50.006;8.230;2022-09-09T04:13:31;13.80;1.00
7542;DHT22;3812;50.006;8.230;2022-09-09T04:15:59;13.80;1.00
7542;DHT22;3812;50.006;8.230;2022-09-09T04:18:27;13.90;1.00
7542;DHT22;3812;50.006;8.230;2022-09-09T04:20:54;13.90;1.00
7542;DHT22;3812;50.006;8.230;2022-09-09T04:23:24;13.80;1.00
7542;DHT22;3812;50.006;8.230;2022-09-09T04:25:55;13.80;1.00
7542;DHT22;3812;50.006;8.230;2022-09-09T04:28:24;13.80;1.00
7542;DHT22;3812;50.006;8.230;2022-09-09T04:30:53;13.90;1.00
7542;DHT22;3812;50.006;8.230;2022-09-09T04:33:20;13.80;1.00
7542;DHT22;3812;50.006;8.230;2022-09-09T04:35:50;13.80;1.00
7542;DHT22;3812;50.006;8.230;2022-09-09T04:38:20;13.80;1.00
7542;DHT22;3812;50.006;8.230;2022-09-09T04:40:51;13.80;1.00
7542;DHT22;3812;50.006;8.230;2022-09-09T15:17:48;13.80;99.90
7542;DHT22;3812;50.006;8.230;2022-09-09T15:20:15;32.70;1.00
7542;DHT22;3812;50.006;8.230;2022-09-09T15:22:42;32.00;1.00
7542;DHT22;3812;50.006;8.230;2022-09-09T15:25:10;31.20;1.00
7542;DHT22;3812;50.006;8.230;2022-09-09T15:27:38;30.30;1.00
7542;DHT22;3812;50.006;8.230;2022-09-09T15:30:07;29.80;1.00
7542;DHT22;3812;50.006;8.230;2022-09-09T15:32:34;29.70;1.00
7542;DHT22;3812;50.006;8.230;2022-09-09T15:35:03;28.90;1.00
7542;DHT22;3812;50.006;8.230;2022-09-09T15:37:30;27.30;1.00
7542;DHT22;3812;50.006;8.230;2022-09-09T15:39:57;26.10;1.00
7542;DHT22;3812;50.006;8.230;2022-09-09T15:42:25;25.00;1.00
7542;DHT22;3812;50.006;8.230;2022-09-09T15:44:52;23.70;1.00
7542;DHT22;3812;50.006;8.230;2022-09-09T15:47:19;22.40;1.00
7542;DHT22;3812;50.006;8.230;2022-09-09T15:49:46;21.70;1.00
7542;DHT22;3812;50.006;8.230;2022-09-09T15:52:14;21.20;1.00
7542;DHT22;3812;50.006;8.230;2022-09-09T15:54:41;20.80;1.00
7542;DHT22;3812;50.006;8.230;2022-09-09T15:57:14;20.40;1.00
7542;DHT22;3812;50.006;8.230;2022-09-09T15:59:41;20.30;1.00
7542;DHT22;3812;50.006;8.230;2022-09-09T16:02:10;20.20;1.00
7542;DHT22;3812;50.006;8.230;2022-09-09T16:04:37;20.20;1.00
7542;DHT22;3812;50.006;8.230;2022-09-09T16:07:05;20.60;1.00
7542;DHT22;3812;50.006;8.230;2022-09-09T16:09:34;20.90;1.00
7542;DHT22;3812;50.006;8.230;2022-09-09T16:12:03;20.80;1.00
7542;DHT22;3812;50.006;8.230;2022-09-09T16:14:33;20.60;1.00
7542;DHT22;3812;50.006;8.230;2022-09-09T16:17:02;20.50;1.00
7542;DHT22;3812;50.006;8.230;2022-09-09T16:19:29;20.50;1.00
7542;DHT22;3812;50.006;8.230;2022-09-09T16:21:56;20.50;1.00
7542;DHT22;3812;50.006;8.230;2022-09-09T16:24:23;20.50;1.00
7542;DHT22;3812;50.006;8.230;2022-09-09T16:26:54;20.50;1.00
7542;DHT22;3812;50.006;8.230;2022-09-09T16:29:22;20.30;1.00
7542;DHT22;3812;50.006;8.230;2022-09-09T16:31:50;20.20;1.00
7542;DHT22;3812;50.006;8.230;2022-09-09T16:34:18;20.00;1.00
7542;DHT22;3812;50.006;8.230;2022-09-09T16:36:46;19.90;1.00
7542;DHT22;3812;50.006;8.230;2022-09-09T16:39:15;19.60;1.00
7542;DHT22;3812;50.006;8.230;2022-09-09T16:41:43;19.40;1.00
7542;DHT22;3812;50.006;8.230;2022-09-09T16:44:13;19.30;1.00
7542;DHT22;3812;50.006;8.230;2022-09-09T16:46:42;19.20;1.00
7542;DHT22;3812;50.006;8.230;2022-09-09T16:49:11;19.10;1.00
7542;DHT22;3812;50.006;8.230;2022-09-09T16:51:40;19.00;1.00
7542;DHT22;3812;50.006;8.230;2022-09-09T16:54:08;18.80;1.00
7542;DHT22;3812;50.006;8.230;2022-09-09T16:56:38;18.50;1.00
7542;DHT22;3812;50.006;8.230;2022-09-09T16:59:08;18.20;1.00
7542;DHT22;3812;50.006;8.230;2022-09-09T17:01:38;18.10;1.00
7542;DHT22;3812;50.006;8.230;2022-09-09T17:04:07;18.00;1.00
7542;DHT22;3812;50.006;8.230;2022-09-09T17:06:35;18.00;1.00
7542;DHT22;3812;50.006;8.230;2022-09-09T17:09:05;18.00;1.00
7542;DHT22;3812;50.006;8.230;2022-09-09T17:11:33;17.90;1.00
7542;DHT22;3812;50.006;8.230;2022-09-09T17:14:00;17.70;1.00
7542;DHT22;3812;50.006;8.230;2022-09-09T17:16:28;17.40;22.50
7542;DHT22;3812;50.006;8.230;2022-09-09T17:18:57;17.20;33.20
7542;DHT22;3812;50.006;8.230;2022-09-09T17:21:25;16.90;68.90
7542;DHT22;3812;50.006;8.230;2022-09-09T17:23:53;16.80;95.10
7542;DHT22;3812;50.006;8.230;2022-09-09T17:26:24;16.60;99.90
7542;DHT22;3812;50.006;8.230;2022-09-09T17:28:52;16.50;99.90
7542;DHT22;3812;50.006;8.230;2022-09-09T17:31:21;16.40;99.90
7542;DHT22;3812;50.006;8.230;2022-09-09T17:33:49;16.30;99.90
7542;DHT22;3812;50.006;8.230;2022-09-09T17:36:21;16.20;99.90
7542;DHT22;3812;50.006;8.230;2022-09-09T17:38:49;16.20;99.90
7542;DHT22;3812;50.006;8.230;2022-09-09T17:41:17;16.10;99.90
7542;DHT22;3812;50.006;8.230;2022-09-09T17:43:46;16.10;99.90
7542;DHT22;3812;50.006;8.230;2022-09-09T17:46:14;16.00;99.90
7542;DHT22;3812;50.006;8.230;2022-09-09T17:48:43;16.00;99.90
7542;DHT22;3812;50.006;8.230;2022-09-09T17:51:13;15.90;99.90
7542;DHT22;3812;50.006;8.230;2022-09-09T17:53:43;16.00;99.90
7542;DHT22;3812;50.006;8.230;2022-09-09T17:56:12;15.90;99.90
7542;DHT22;3812;50.006;8.230;2022-09-09T17:58:40;15.90;99.90
7542;DHT22;3812;50.006;8.230;2022-09-09T18:01:09;15.80;99.90
7542;DHT22;3812;50.006;8.230;2022-09-09T18:03:37;15.90;99.90
7542;DHT22;3812;50.006;8.230;2022-09-09T18:06:06;15.90;99.90
7542;DHT22;3812;50.006;8.230;2022-09-09T18:08:35;15.80;99.90
7542;DHT22;3812;50.006;8.230;2022-09-09T18:11:04;15.80;99.90
7542;DHT22;3812;50.006;8.230;2022-09-09T18:13:31;15.80;99.90
7542;DHT22;3812;50.006;8.230;2022-09-09T18:15:58;15.90;99.90
7542;DHT22;3812;50.006;8.230;2022-09-09T18:18:26;15.90;99.90
7542;DHT22;3812;50.006;8.230;2022-09-09T18:20:57;15.90;99.90
7542;DHT22;3812;50.006;8.230;2022-09-09T18:23:26;15.90;99.90
7542;DHT22;3812;50.006;8.230;2022-09-09T18:25:54;15.90;99.90
7542;DHT22;3812;50.006;8.230;2022-09-09T18:28:22;15.80;99.90
7542;DHT22;3812;50.006;8.230;2022-09-09T18:30:49;15.70;99.90
7542;DHT22;3812;50.006;8.230;2022-09-09T18:33:17;15.60;99.90
7542;DHT22;3812;50.006;8.230;2022-09-09T18:35:44;15.50;99.90
7542;DHT22;3812;50.006;8.230;2022-09-09T18:38:13;15.40;99.90
7542;DHT22;3812;50.006;8.230;2022-09-09T18:40:42;15.30;99.90
7542;DHT22;3812;50.006;8.230;2022-09-09T18:43:09;15.20;99.90
7542;DHT22;3812;50.006;8.230;2022-09-09T18:45:37;15.10;99.90
7542;DHT22;3812;50.006;8.230;2022-09-09T18:48:04;15.10;99.90
7542;DHT22;3812;50.006;8.230;2022-09-09T18:50:33;15.10;99.90
7542;DHT22;3812;50.006;8.230;2022-09-09T18:53:00;15.00;99.90
7542;DHT22;3812;50.006;8.230;2022-09-09T18:55:27;14.90;99.90
7542;DHT22;3812;50.006;8.230;2022-09-09T18:57:54;14.90;99.90
7542;DHT22;3812;50.006;8.230;2022-09-09T19:00:24;14.80;99.90
7542;DHT22;3812;50.006;8.230;2022-09-09T19:02:52;14.80;99.90
7542;DHT22;3812;50.006;8.230;2022-09-09T19:05:19;14.70;99.90
7542;DHT22;3812;50.006;8.230;2022-09-09T19:07:46;14.70;99.90
7542;DHT22;3812;50.006;8.230;2022-09-09T19:10:13;14.60;99.90
7542;DHT22;3812;50.006;8.230;2022-09-09T19:12:40;14.50;99.90
7542;DHT22;3812;50.006;8.230;2022-09-09T19:15:07;14.50;99.90
